EZY72CU LTBS-EGKK
Flight info
| Callsign | EZY72CU |
|---|---|
| Flight time | N/A |
| Altitude | 36000 |
| Route | KEKIK DCT YOYYO UG80 IMR UN127 RIKSO DCT FSK UL608 DISOR DCT LONTA UL608 DOLEV DCT PEVAL DCT ROKIB DCT SAFFA DCT ELMUR DCT RIPUS DCT DITON DCT HOC DCT LUL DCT RLP DCT ROTSI DCT KOTUN DCT NINAL DCT KESAX DCT KUNAV |
| Aircraft | A320/M-SDE3FGHIRWY/LB1 |
Departure
| Time | 2026-04-23 15:20 |
|---|---|
| Airport | Dalaman International Airport (LTBS) |
Arrival
| Time | N/A |
|---|---|
| Airport | London Gatwick Airport (EGKK) |
| Time | Latitude | Longitude | Altitude | Speed | Heading |
|---|---|---|---|---|---|
| 2026-04-23 14:21 | 36.72159 | 28.79025 | 27 ft | 0 kts | 286° |
| 2026-04-23 15:11 | 36.72159 | 28.79026 | 27 ft | 1 kts | 286° |
| 2026-04-23 15:12 | 36.72154 | 28.79046 | 27 ft | 3 kts | 287° |
| 2026-04-23 15:12 | 36.72148 | 28.79070 | 27 ft | 3 kts | 290° |
| 2026-04-23 15:12 | 36.72140 | 28.79093 | 27 ft | 3 kts | 295° |
| 2026-04-23 15:12 | 36.72134 | 28.79108 | 27 ft | 1 kts | 299° |
| 2026-04-23 15:13 | 36.72134 | 28.79109 | 27 ft | 0 kts | 299° |
| 2026-04-23 15:14 | 36.72146 | 28.79105 | 27 ft | 5 kts | 3° |
| 2026-04-23 15:15 | 36.72228 | 28.79134 | 27 ft | 15 kts | 15° |
| 2026-04-23 15:15 | 36.72309 | 28.79187 | 27 ft | 9 kts | 88° |
| 2026-04-23 15:15 | 36.72290 | 28.79258 | 27 ft | 13 kts | 105° |
| 2026-04-23 15:15 | 36.72303 | 28.79371 | 27 ft | 15 kts | 27° |
| 2026-04-23 15:16 | 36.72410 | 28.79410 | 27 ft | 17 kts | 16° |
| 2026-04-23 15:16 | 36.72529 | 28.79450 | 27 ft | 19 kts | 15° |
| 2026-04-23 15:16 | 36.72629 | 28.79495 | 27 ft | 11 kts | 46° |
| 2026-04-23 15:16 | 36.72643 | 28.79547 | 27 ft | 0 kts | 95° |
| 2026-04-23 15:18 | 36.72640 | 28.79565 | 27 ft | 7 kts | 102° |
| 2026-04-23 15:18 | 36.72619 | 28.79649 | 28 ft | 11 kts | 109° |
| 2026-04-23 15:19 | 36.72555 | 28.79670 | 29 ft | 12 kts | 198° |
| 2026-04-23 15:19 | 36.72345 | 28.79600 | 28 ft | 64 kts | 195° |
| 2026-04-23 15:19 | 36.71707 | 28.79382 | 27 ft | 124 kts | 195° |
| 2026-04-23 15:19 | 36.70715 | 28.79043 | 102 ft | 163 kts | 196° |
| 2026-04-23 15:20 | 36.69631 | 28.78674 | 802 ft | 161 kts | 195° |
| 2026-04-23 15:20 | 36.68540 | 28.78306 | 1493 ft | 166 kts | 197° |
| 2026-04-23 15:20 | 36.67363 | 28.77849 | 1885 ft | 188 kts | 209° |
| 2026-04-23 15:20 | 36.66414 | 28.76665 | 2264 ft | 205 kts | 247° |
| 2026-04-23 15:21 | 36.66146 | 28.74852 | 2646 ft | 223 kts | 272° |
| 2026-04-23 15:21 | 36.66344 | 28.72901 | 3312 ft | 230 kts | 283° |
| 2026-04-23 15:21 | 36.66737 | 28.70962 | 4093 ft | 232 kts | 285° |
| 2026-04-23 15:21 | 36.67381 | 28.69135 | 4888 ft | 233 kts | 305° |
| 2026-04-23 15:22 | 36.68369 | 28.67526 | 5645 ft | 234 kts | 304° |
| 2026-04-23 15:22 | 36.69321 | 28.65870 | 6412 ft | 235 kts | 302° |
| 2026-04-23 15:22 | 36.70241 | 28.64180 | 7142 ft | 236 kts | 301° |
| 2026-04-23 15:22 | 36.71160 | 28.62482 | 7836 ft | 237 kts | 301° |
| 2026-04-23 15:23 | 36.72080 | 28.60798 | 8577 ft | 239 kts | 300° |
| 2026-04-23 15:23 | 36.73018 | 28.59089 | 9348 ft | 239 kts | 300° |
| 2026-04-23 15:23 | 36.73963 | 28.57375 | 10068 ft | 241 kts | 300° |
| 2026-04-23 15:23 | 36.74913 | 28.55649 | 10731 ft | 242 kts | 300° |
| 2026-04-23 15:24 | 36.75871 | 28.53911 | 11381 ft | 244 kts | 300° |
| 2026-04-23 15:24 | 36.76839 | 28.52157 | 12030 ft | 247 kts | 300° |
| 2026-04-23 15:24 | 36.77818 | 28.50387 | 12701 ft | 249 kts | 300° |
| 2026-04-23 15:24 | 36.78805 | 28.48602 | 13378 ft | 251 kts | 300° |
| 2026-04-23 15:25 | 36.79802 | 28.46794 | 13946 ft | 257 kts | 300° |
| 2026-04-23 15:25 | 36.80852 | 28.44878 | 14171 ft | 274 kts | 300° |
| 2026-04-23 15:25 | 36.81931 | 28.42919 | 14818 ft | 274 kts | 300° |
| 2026-04-23 15:25 | 36.83017 | 28.40951 | 15431 ft | 276 kts | 300° |
| 2026-04-23 15:26 | 36.84111 | 28.38971 | 16085 ft | 278 kts | 299° |
| 2026-04-23 15:26 | 36.85211 | 28.36977 | 16684 ft | 279 kts | 299° |
| 2026-04-23 15:26 | 36.86298 | 28.34999 | 17304 ft | 280 kts | 298° |
| 2026-04-23 15:26 | 36.87402 | 28.32991 | 17942 ft | 281 kts | 298° |
| 2026-04-23 15:27 | 36.88511 | 28.30974 | 18515 ft | 283 kts | 298° |
| 2026-04-23 15:27 | 36.89630 | 28.28938 | 19036 ft | 285 kts | 298° |